createdAt,value
2018-09-21T00:00:39.842Z,1003.76
2018-09-21T00:01:39.517Z,1003.79
2018-09-21T00:03:33.109Z,1003.81
2018-09-21T00:04:32.877Z,1003.82
2018-09-21T00:06:26.212Z,1003.83
2018-09-21T00:07:25.868Z,1003.82
2018-09-21T00:09:19.106Z,1003.89
2018-09-21T00:10:18.764Z,1003.89
2018-09-21T00:12:12.403Z,1003.89
2018-09-21T00:13:12.134Z,1003.90
2018-09-21T00:15:05.786Z,1003.87
2018-09-21T00:16:05.497Z,1003.87
2018-09-21T00:17:58.899Z,1003.84
2018-09-21T00:18:58.864Z,1003.86
2018-09-21T00:20:52.503Z,1003.84
2018-09-21T00:21:52.227Z,1003.81
2018-09-21T00:23:45.925Z,1003.78
2018-09-21T00:24:45.123Z,1003.82
2018-09-21T00:26:38.706Z,1003.77
2018-09-21T00:27:38.505Z,1003.73
2018-09-21T00:29:32.203Z,1003.69
2018-09-21T00:30:31.917Z,1003.66
2018-09-21T00:32:25.616Z,1003.65
2018-09-21T00:33:24.764Z,1003.63
2018-09-21T00:35:18.190Z,1003.59
2018-09-21T00:36:18.412Z,1003.56
2018-09-21T00:38:12.803Z,1003.61
2018-09-21T00:39:12.858Z,1003.58
2018-09-21T00:41:07.186Z,1003.54
2018-09-21T00:42:07.032Z,1003.55
2018-09-21T00:44:00.042Z,1003.54
2018-09-21T00:44:59.748Z,1003.53
2018-09-21T00:46:54.032Z,1003.52
2018-09-21T00:47:53.670Z,1003.52
2018-09-21T00:49:46.793Z,1003.51
2018-09-21T00:50:46.536Z,1003.55
2018-09-21T00:52:40.294Z,1003.51
2018-09-21T00:53:39.921Z,1003.48
2018-09-21T00:55:34.605Z,1003.46
2018-09-21T00:56:33.312Z,1003.46
2018-09-21T00:58:27.522Z,1003.48
2018-09-21T00:59:26.707Z,1003.48
2018-09-21T01:01:20.939Z,1003.48
2018-09-21T01:02:20.621Z,1003.45
2018-09-21T01:04:15.341Z,1003.44
2018-09-21T01:05:15.035Z,1003.41
2018-09-21T01:07:19.927Z,1003.36
2018-09-21T01:08:09.361Z,1003.35
2018-09-21T01:10:03.355Z,1003.39
2018-09-21T01:11:02.741Z,1003.40
2018-09-21T01:12:55.935Z,1003.32
2018-09-21T01:13:55.646Z,1003.28
2018-09-21T01:15:48.808Z,1003.26
2018-09-21T01:16:48.552Z,1003.24
2018-09-21T01:18:42.230Z,1003.20
2018-09-21T01:19:42.188Z,1003.13
2018-09-21T01:21:35.523Z,1003.14
2018-09-21T01:22:35.242Z,1003.13
2018-09-21T01:24:28.904Z,1003.11
2018-09-21T01:25:28.609Z,1003.00
2018-09-21T01:27:22.304Z,1003.01
2018-09-21T01:28:21.980Z,1003.01
2018-09-21T01:30:15.401Z,1002.97
2018-09-21T01:31:15.363Z,1002.94
2018-09-21T01:33:09.015Z,1002.92
2018-09-21T01:34:08.260Z,1002.89
2018-09-21T01:36:01.924Z,1002.83
2018-09-21T01:37:01.413Z,1002.82
2018-09-21T01:38:55.781Z,1002.84
2018-09-21T01:39:54.777Z,1002.79
2018-09-21T01:41:49.063Z,1002.82
2018-09-21T01:42:48.172Z,1002.79
2018-09-21T01:44:41.796Z,1002.77
2018-09-21T01:45:42.333Z,1002.77
2018-09-21T01:47:35.686Z,1002.73
2018-09-21T01:48:34.903Z,1002.73
2018-09-21T01:50:28.611Z,1002.72
2018-09-21T01:51:28.553Z,1002.72
2018-09-21T01:53:21.965Z,1002.68
2018-09-21T01:54:21.655Z,1002.77
2018-09-21T01:56:15.318Z,1002.67
2018-09-21T01:57:15.263Z,1002.72
2018-09-21T01:59:09.038Z,1002.68
2018-09-21T02:00:08.876Z,1002.67
2018-09-21T02:02:01.301Z,1002.68
2018-09-21T02:03:01.943Z,1002.62
2018-09-21T02:04:54.852Z,1002.63
2018-09-21T02:05:54.647Z,1002.61
2018-09-21T02:07:47.550Z,1002.54
2018-09-21T02:08:47.527Z,1002.51
2018-09-21T02:10:40.913Z,1002.51
2018-09-21T02:11:40.891Z,1002.50
2018-09-21T02:13:34.478Z,1002.42
2018-09-21T02:14:34.286Z,1002.45
2018-09-21T02:16:27.815Z,1002.42
2018-09-21T02:17:27.631Z,1002.42
2018-09-21T02:19:21.338Z,1002.41
2018-09-21T02:20:21.020Z,1002.37
2018-09-21T02:22:14.528Z,1002.33
2018-09-21T02:23:14.395Z,1002.30
2018-09-21T02:25:07.415Z,1002.24
2018-09-21T02:26:07.271Z,1002.26
2018-09-21T02:28:00.809Z,1002.18
2018-09-21T02:29:00.648Z,1002.17
2018-09-21T02:30:53.684Z,1002.09
2018-09-21T02:31:53.565Z,1002.11
2018-09-21T02:33:46.428Z,1002.05
2018-09-21T02:34:46.409Z,1002.05
2018-09-21T02:36:39.472Z,1001.98
2018-09-21T02:37:39.318Z,1001.96
2018-09-21T02:39:32.673Z,1001.96
2018-09-21T02:40:32.640Z,1001.88
2018-09-21T02:42:25.591Z,1001.84
2018-09-21T02:43:25.551Z,1001.83
2018-09-21T02:45:18.943Z,1001.77
2018-09-21T02:46:18.907Z,1001.69
2018-09-21T02:48:12.432Z,1001.63
2018-09-21T02:49:12.269Z,1001.66
2018-09-21T02:51:05.305Z,1001.71
2018-09-21T02:52:05.142Z,1001.68
2018-09-21T02:53:58.041Z,1001.65
2018-09-21T02:54:58.033Z,1001.56
2018-09-21T02:56:51.427Z,1001.59
2018-09-21T02:57:51.413Z,1001.56
2018-09-21T02:59:44.922Z,1001.54
2018-09-21T03:00:44.975Z,1001.51
2018-09-21T03:02:37.745Z,1001.47
2018-09-21T03:03:37.677Z,1001.43
2018-09-21T03:05:31.069Z,1001.39
2018-09-21T03:06:31.086Z,1001.37
2018-09-21T03:08:24.132Z,1001.38
2018-09-21T03:09:23.925Z,1001.31
2018-09-21T03:11:16.808Z,1001.37
2018-09-21T03:12:16.799Z,1001.34
2018-09-21T03:14:10.372Z,1001.32
2018-09-21T03:15:10.171Z,1001.31
2018-09-21T03:17:03.574Z,1001.31
2018-09-21T03:18:03.539Z,1001.33
2018-09-21T03:19:56.427Z,1001.28
2018-09-21T03:20:56.409Z,1001.29
2018-09-21T03:22:49.802Z,1001.22
2018-09-21T03:23:49.785Z,1001.22
2018-09-21T03:25:42.722Z,1001.17
2018-09-21T03:26:42.663Z,1001.11
2018-09-21T03:28:36.173Z,1001.07
2018-09-21T03:29:36.022Z,1001.05
2018-09-21T03:31:29.422Z,1001.05
2018-09-21T03:32:29.413Z,1000.98
2018-09-21T03:34:22.450Z,1000.94
2018-09-21T03:35:22.324Z,1000.93
2018-09-21T03:37:15.197Z,1000.93
2018-09-21T03:38:15.167Z,1000.94
2018-09-21T03:40:08.749Z,1000.89
2018-09-21T03:41:08.526Z,1000.91
2018-09-21T03:43:01.449Z,1000.82
2018-09-21T03:44:01.408Z,1000.80
2018-09-21T03:45:54.497Z,1000.85
2018-09-21T03:46:54.295Z,1000.79
2018-09-21T03:48:47.682Z,1000.72
2018-09-21T03:49:47.688Z,1000.68
2018-09-21T03:51:41.254Z,1000.61
2018-09-21T03:52:41.040Z,1000.57
2018-09-21T03:54:33.950Z,1000.52
2018-09-21T03:55:33.916Z,1000.56
2018-09-21T03:57:27.300Z,1000.49
2018-09-21T03:58:27.275Z,1000.54
2018-09-21T04:00:20.900Z,1000.51
2018-09-21T04:01:20.649Z,1000.49
2018-09-21T04:03:14.266Z,1000.45
2018-09-21T04:04:14.066Z,1000.50
2018-09-21T04:06:07.171Z,1000.48
2018-09-21T04:07:06.916Z,1000.44
2018-09-21T04:09:00.641Z,1000.45
2018-09-21T04:10:00.329Z,1000.45
2018-09-21T04:11:54.015Z,1000.40
2018-09-21T04:12:53.647Z,1000.39
2018-09-21T04:14:47.650Z,1000.37
2018-09-21T04:15:47.020Z,1000.39
2018-09-21T04:17:40.420Z,1000.29
2018-09-21T04:18:40.415Z,1000.23
2018-09-21T04:20:33.880Z,1000.24
2018-09-21T04:21:33.278Z,1000.23
2018-09-21T04:23:27.005Z,1000.16
2018-09-21T04:24:26.437Z,1000.11
2018-09-21T04:26:20.100Z,1000.11
2018-09-21T04:27:19.815Z,1000.10
2018-09-21T04:29:13.464Z,1000.12
2018-09-21T04:30:13.189Z,1000.08
2018-09-21T04:32:06.923Z,1000.05
2018-09-21T04:33:06.854Z,1000.00
2018-09-21T04:34:59.585Z,1000.02
2018-09-21T04:35:59.455Z,1000.01
2018-09-21T04:37:52.830Z,1000.00
2018-09-21T04:38:53.034Z,1000.01
2018-09-21T04:40:46.789Z,1000.09
2018-09-21T04:41:46.757Z,1000.05
2018-09-21T04:43:39.829Z,1000.09
2018-09-21T04:44:39.652Z,1000.11
2018-09-21T04:46:32.660Z,1000.11
2018-09-21T04:47:32.519Z,1000.11
2018-09-21T04:49:25.943Z,1000.11
2018-09-21T04:50:25.903Z,1000.12
2018-09-21T04:52:19.595Z,1000.19
2018-09-21T04:53:19.286Z,1000.23
2018-09-21T04:55:12.797Z,1000.18
2018-09-21T04:56:12.692Z,1000.21
2018-09-21T04:58:06.642Z,1000.27
2018-09-21T04:59:06.577Z,1000.27
2018-09-21T05:00:59.550Z,1000.27
2018-09-21T05:01:59.511Z,1000.23
2018-09-21T05:03:52.915Z,1000.23
2018-09-21T05:04:52.895Z,1000.31
2018-09-21T05:06:45.961Z,1000.36
2018-09-21T05:07:45.823Z,1000.31
2018-09-21T05:09:38.768Z,1000.29
2018-09-21T05:10:38.669Z,1000.22
2018-09-21T05:12:32.194Z,1000.16
2018-09-21T05:13:32.070Z,1000.08
2018-09-21T05:15:25.443Z,1000.07
2018-09-21T05:16:25.446Z,1000.02
2018-09-21T05:18:18.837Z,1000.08
2018-09-21T05:19:18.806Z,1000.05
2018-09-21T05:21:12.251Z,1000.07
2018-09-21T05:22:12.198Z,1000.04
2018-09-21T05:24:05.621Z,999.97
2018-09-21T05:25:05.564Z,1000.01
2018-09-21T05:26:59.547Z,1000.03
2018-09-21T05:27:59.526Z,1000.02
2018-09-21T05:29:52.414Z,999.99
2018-09-21T05:30:52.403Z,1000.01
2018-09-21T05:32:45.366Z,999.98
2018-09-21T05:33:45.268Z,999.95
2018-09-21T05:35:38.759Z,1000.05
2018-09-21T05:36:38.663Z,1000.02
2018-09-21T05:38:32.076Z,1000.04
2018-09-21T05:39:32.027Z,1000.07
2018-09-21T05:41:26.924Z,1000.03
2018-09-21T05:42:26.707Z,1000.01
2018-09-21T05:44:19.690Z,1000.03
2018-09-21T05:45:19.313Z,999.96
2018-09-21T05:47:13.349Z,999.93
2018-09-21T05:48:13.244Z,999.88
2018-09-21T05:50:06.257Z,999.78
2018-09-21T05:51:06.122Z,999.84
2018-09-21T05:52:59.254Z,1000.00
2018-09-21T05:53:59.023Z,999.97
2018-09-21T05:55:51.917Z,999.96
2018-09-21T05:56:51.919Z,1000.07
2018-09-21T05:58:46.044Z,1000.04
2018-09-21T05:59:45.265Z,1000.00
2018-09-21T06:01:39.237Z,1000.05
2018-09-21T06:02:38.651Z,1000.09
2018-09-21T06:04:32.065Z,1000.11
2018-09-21T06:05:32.017Z,1000.14
2018-09-21T06:07:25.045Z,1000.15
2018-09-21T06:08:24.897Z,1000.17
2018-09-21T06:10:17.923Z,1000.15
2018-09-21T06:11:17.785Z,1000.19
2018-09-21T06:13:11.176Z,1000.25
2018-09-21T06:14:11.179Z,1000.25
2018-09-21T06:16:04.079Z,1000.25
2018-09-21T06:17:04.060Z,1000.23
2018-09-21T06:18:56.958Z,1000.25
2018-09-21T06:19:56.942Z,1000.24
2018-09-21T06:21:49.833Z,1000.10
2018-09-21T06:22:49.885Z,1000.16
2018-09-21T06:24:43.343Z,1000.17
2018-09-21T06:25:43.194Z,1000.21
2018-09-21T06:27:36.200Z,1000.14
2018-09-21T06:28:37.127Z,1000.17
2018-09-21T06:30:29.104Z,1000.30
2018-09-21T06:31:29.082Z,1000.16
2018-09-21T06:33:22.483Z,1000.23
2018-09-21T06:34:22.442Z,1000.15
2018-09-21T06:36:15.839Z,1000.25
2018-09-21T06:37:15.820Z,1000.17
2018-09-21T06:39:08.745Z,1000.12
2018-09-21T06:40:08.697Z,1000.12
2018-09-21T06:42:02.121Z,999.96
2018-09-21T06:43:02.073Z,1000.07
2018-09-21T06:44:55.118Z,1000.05
2018-09-21T06:45:54.967Z,1000.14
2018-09-21T06:47:48.461Z,1000.09
2018-09-21T06:48:48.335Z,1000.00
2018-09-21T06:50:41.364Z,1000.03
2018-09-21T06:51:41.234Z,1000.00
2018-09-21T06:53:34.645Z,1000.07
2018-09-21T06:54:34.616Z,1000.07
2018-09-21T06:56:28.169Z,1000.02
2018-09-21T06:57:27.998Z,1000.08
2018-09-21T06:59:21.972Z,1000.12
2018-09-21T07:00:21.394Z,1000.15
2018-09-21T07:02:15.008Z,1000.21
2018-09-21T07:03:14.758Z,1000.20
2018-09-21T07:05:08.231Z,1000.22
2018-09-21T07:06:07.647Z,1000.11
2018-09-21T07:08:00.833Z,1000.08
2018-09-21T07:09:00.686Z,1000.13
2018-09-21T07:10:53.555Z,1000.19
2018-09-21T07:11:53.428Z,1000.25
2018-09-21T07:13:46.920Z,1000.30
2018-09-21T07:14:46.806Z,1000.24
2018-09-21T07:16:39.834Z,1000.18
2018-09-21T07:17:39.670Z,1000.20
2018-09-21T07:19:33.639Z,1000.19
2018-09-21T07:20:33.044Z,1000.21
2018-09-21T07:22:26.447Z,1000.08
2018-09-21T07:23:26.421Z,1000.12
2018-09-21T07:25:19.824Z,1000.13
2018-09-21T07:26:19.813Z,1000.11
2018-09-21T07:28:13.300Z,1000.05
2018-09-21T07:29:13.184Z,1000.04
2018-09-21T07:31:06.191Z,999.92
2018-09-21T07:32:06.083Z,1000.05
2018-09-21T07:33:58.982Z,1000.02
2018-09-21T07:34:58.961Z,1000.03
2018-09-21T07:36:52.606Z,1000.09
2018-09-21T07:37:52.339Z,1000.13
2018-09-21T07:39:45.890Z,1000.03
2018-09-21T07:40:45.766Z,1000.03
2018-09-21T07:42:38.718Z,1000.12
2018-09-21T07:43:38.607Z,1000.12
2018-09-21T07:45:32.009Z,1000.15
2018-09-21T07:46:31.978Z,1000.12
2018-09-21T07:48:24.884Z,1000.04
2018-09-21T07:49:24.862Z,1000.08
2018-09-21T07:51:18.417Z,1000.10
2018-09-21T07:52:18.242Z,1000.08
2018-09-21T07:54:12.381Z,1000.08
2018-09-21T07:55:12.235Z,1000.05
2018-09-21T07:57:05.175Z,1000.06
2018-09-21T07:58:05.142Z,1000.14
2018-09-21T07:59:58.054Z,1000.03
2018-09-21T08:00:58.033Z,1000.01
2018-09-21T08:02:53.098Z,1000.04
2018-09-21T08:03:51.984Z,999.96
2018-09-21T08:05:45.055Z,999.86
2018-09-21T08:06:44.850Z,999.76
2018-09-21T08:08:38.259Z,999.79
2018-09-21T08:09:38.242Z,999.71
2018-09-21T08:11:31.282Z,999.74
2018-09-21T08:12:31.117Z,999.68
2018-09-21T08:14:24.165Z,999.79
2018-09-21T08:15:24.023Z,999.75
2018-09-21T08:17:17.697Z,999.85
2018-09-21T08:18:17.953Z,999.93
2018-09-21T08:20:10.778Z,999.89
2018-09-21T08:21:10.779Z,999.84
2018-09-21T08:23:04.154Z,999.91
2018-09-21T08:24:04.135Z,999.94
2018-09-21T08:25:57.680Z,999.92
2018-09-21T08:26:57.519Z,999.94
2018-09-21T08:28:51.488Z,1000.07
2018-09-21T08:29:50.403Z,1000.02
2018-09-21T08:31:43.313Z,1000.15
2018-09-21T08:32:43.293Z,1000.09
2018-09-21T08:34:36.774Z,1000.09
2018-09-21T08:35:36.702Z,1000.17
2018-09-21T08:37:30.081Z,1000.25
2018-09-21T08:38:30.043Z,1000.30
2018-09-21T08:40:23.049Z,1000.25
2018-09-21T08:41:22.925Z,1000.26
2018-09-21T08:43:16.326Z,1000.24
2018-09-21T08:44:16.318Z,1000.37
2018-09-21T08:46:09.313Z,1000.41
2018-09-21T08:47:09.201Z,1000.50
2018-09-21T08:49:02.758Z,1000.48
2018-09-21T08:50:02.576Z,1000.40
2018-09-21T08:51:56.090Z,1000.51
2018-09-21T08:52:55.996Z,1000.47
2018-09-21T08:54:49.540Z,1000.49
2018-09-21T08:55:49.345Z,1000.46
2018-09-21T08:57:42.806Z,1000.30
2018-09-21T08:58:42.722Z,1000.21
2018-09-21T09:00:36.253Z,1000.16
2018-09-21T09:01:36.114Z,1000.23
2018-09-21T09:03:29.590Z,1000.20
2018-09-21T09:04:29.473Z,1000.21
2018-09-21T09:06:22.540Z,1000.33
2018-09-21T09:07:22.365Z,1000.31
2018-09-21T09:09:15.278Z,1000.24
2018-09-21T09:10:15.277Z,1000.31
2018-09-21T09:12:08.273Z,1000.27
2018-09-21T09:13:08.135Z,1000.30
2018-09-21T09:15:01.505Z,1000.52
2018-09-21T09:16:02.101Z,1000.53
2018-09-21T09:17:55.019Z,1000.69
2018-09-21T09:18:55.431Z,1000.61
2018-09-21T09:20:50.002Z,1000.60
2018-09-21T09:21:48.271Z,1000.55
2018-09-21T09:23:41.668Z,1000.74
2018-09-21T09:25:53.907Z,1000.82
2018-09-21T09:26:53.900Z,1000.92
2018-09-21T09:28:46.935Z,1001.02
2018-09-21T09:29:46.796Z,1001.11
2018-09-21T09:31:40.335Z,1001.35
2018-09-21T09:32:40.164Z,1001.32
2018-09-21T09:34:33.683Z,1001.59
2018-09-21T09:35:33.542Z,1001.23
2018-09-21T09:37:26.943Z,1001.44
2018-09-21T09:38:26.914Z,1001.62
2018-09-21T09:40:19.852Z,1001.70
2018-09-21T09:41:19.897Z,1001.82
2018-09-21T09:43:12.952Z,1001.99
2018-09-21T09:44:12.699Z,1002.14
2018-09-21T09:46:05.706Z,1002.07
2018-09-21T09:47:05.581Z,1002.03
2018-09-21T09:48:59.119Z,1002.30
2018-09-21T09:49:58.945Z,1002.39
2018-09-21T09:51:52.461Z,1002.23
2018-09-21T09:52:52.325Z,1002.27
2018-09-21T09:54:45.845Z,1002.20
2018-09-21T09:55:45.694Z,1002.26
2018-09-21T09:57:39.090Z,1002.41
2018-09-21T09:58:39.639Z,1002.39
2018-09-21T10:00:32.086Z,1002.55
2018-09-21T10:01:31.948Z,1002.58
2018-09-21T10:03:25.368Z,1002.69
2018-09-21T10:04:25.343Z,1002.73
2018-09-21T10:06:18.524Z,1002.86
2018-09-21T10:07:18.515Z,1002.95
2018-09-21T10:09:11.889Z,1002.84
2018-09-21T10:10:11.927Z,1002.88
2018-09-21T10:12:04.782Z,1003.00
2018-09-21T10:13:04.748Z,1002.95
2018-09-21T10:14:57.652Z,1002.95
2018-09-21T10:15:57.634Z,1003.01
2018-09-21T10:17:51.599Z,1003.03
2018-09-21T10:18:50.995Z,1002.91
2018-09-21T10:20:44.407Z,1003.02
2018-09-21T10:21:44.372Z,1002.97
2018-09-21T10:23:37.786Z,1002.96
2018-09-21T10:24:37.770Z,1002.97
2018-09-21T10:26:30.652Z,1002.95
2018-09-21T10:27:30.836Z,1002.99
2018-09-21T10:29:24.031Z,1002.94
2018-09-21T10:30:24.004Z,1002.88
2018-09-21T10:32:16.897Z,1002.93
2018-09-21T10:33:16.892Z,1002.92
2018-09-21T10:35:09.783Z,1002.90
2018-09-21T10:36:09.757Z,1002.97
2018-09-21T10:38:03.139Z,1003.02
2018-09-21T10:39:03.156Z,1002.96
2018-09-21T10:40:56.519Z,1002.98
2018-09-21T10:41:56.490Z,1003.00
2018-09-21T10:43:49.881Z,1002.93
2018-09-21T10:44:49.872Z,1002.93
2018-09-21T10:46:43.049Z,1002.87
2018-09-21T10:47:43.027Z,1002.68
2018-09-21T10:49:35.943Z,1002.82
2018-09-21T10:50:35.901Z,1002.80
2018-09-21T10:52:29.311Z,1002.84
2018-09-21T10:53:29.272Z,1002.85
2018-09-21T10:55:22.677Z,1002.87
2018-09-21T10:56:22.650Z,1002.88
2018-09-21T10:58:15.550Z,1002.96
2018-09-21T10:59:15.531Z,1002.94
2018-09-21T11:01:08.729Z,1002.89
2018-09-21T11:02:08.694Z,1002.85
2018-09-21T11:04:01.592Z,1002.87
2018-09-21T11:05:01.578Z,1002.84
2018-09-21T11:06:54.969Z,1002.74
2018-09-21T11:07:54.935Z,1002.73
2018-09-21T11:09:48.332Z,1002.70
2018-09-21T11:10:48.314Z,1002.73
2018-09-21T11:12:42.554Z,1002.77
2018-09-21T11:13:42.526Z,1002.74
2018-09-21T11:15:35.437Z,1002.77
2018-09-21T11:16:35.407Z,1002.77
2018-09-21T11:18:28.804Z,1002.82
2018-09-21T11:19:28.773Z,1002.78
2018-09-21T11:21:22.193Z,1002.87
2018-09-21T11:22:22.139Z,1002.87
2018-09-21T11:24:15.536Z,1002.94
2018-09-21T11:25:15.518Z,1002.93
2018-09-21T11:27:09.004Z,1002.83
2018-09-21T11:28:08.902Z,1002.82
2018-09-21T11:30:02.294Z,1002.79
2018-09-21T11:31:02.256Z,1002.74
2018-09-21T11:32:55.665Z,1002.87
2018-09-21T11:33:55.626Z,1002.93
2018-09-21T11:35:49.094Z,1002.97
2018-09-21T11:36:48.511Z,1002.99
2018-09-21T11:38:41.404Z,1003.01
2018-09-21T11:39:41.376Z,1002.99
2018-09-21T11:41:34.768Z,1003.01
2018-09-21T11:42:34.742Z,1003.06
2018-09-21T11:44:27.716Z,1003.02
2018-09-21T11:45:27.637Z,1003.07
2018-09-21T11:47:20.650Z,1003.06
2018-09-21T11:48:20.495Z,1003.12
2018-09-21T11:50:13.443Z,1003.11
2018-09-21T11:51:13.378Z,1003.19
2018-09-21T11:53:07.825Z,1003.29
2018-09-21T11:54:07.771Z,1003.27
2018-09-21T11:56:00.666Z,1003.31
2018-09-21T11:57:00.635Z,1003.29
2018-09-21T11:58:54.023Z,1003.31
2018-09-21T11:59:54.002Z,1003.29
2018-09-21T12:01:47.443Z,1003.28
2018-09-21T12:02:47.405Z,1003.24
2018-09-21T12:04:40.804Z,1003.27
2018-09-21T12:05:40.771Z,1003.24
2018-09-21T12:07:34.154Z,1003.15
2018-09-21T12:08:34.130Z,1003.12
2018-09-21T12:10:27.273Z,1003.13
2018-09-21T12:11:27.015Z,1003.17
2018-09-21T12:13:19.946Z,1003.19
2018-09-21T12:14:19.934Z,1003.23
2018-09-21T12:16:14.434Z,1003.21
2018-09-21T12:17:14.265Z,1003.16
2018-09-21T12:19:07.657Z,1003.21
2018-09-21T12:20:07.652Z,1003.14
2018-09-21T12:22:01.079Z,1003.23
2018-09-21T12:23:01.036Z,1003.20
2018-09-21T12:24:53.992Z,1003.17
2018-09-21T12:25:53.921Z,1003.18
2018-09-21T12:27:47.373Z,1003.13
2018-09-21T12:28:47.276Z,1003.15
2018-09-21T12:30:40.705Z,1003.24
2018-09-21T12:31:40.668Z,1003.21
2018-09-21T12:33:34.069Z,1003.18
2018-09-21T12:34:34.035Z,1003.18
2018-09-21T12:36:27.009Z,1003.18
2018-09-21T12:37:26.931Z,1003.21
2018-09-21T12:39:20.331Z,1003.15
2018-09-21T12:40:20.302Z,1003.24
2018-09-21T12:42:13.737Z,1003.32
2018-09-21T12:43:13.710Z,1003.41
2018-09-21T12:45:07.112Z,1003.58
2018-09-21T12:46:07.073Z,1003.57
2018-09-21T12:48:00.090Z,1003.68
2018-09-21T12:49:00.009Z,1003.70
2018-09-21T12:50:53.382Z,1003.71
2018-09-21T12:51:53.347Z,1003.81
2018-09-21T12:53:46.251Z,1003.86
2018-09-21T12:54:46.218Z,1003.77
2018-09-21T12:56:39.163Z,1003.90
2018-09-21T12:57:39.163Z,1003.85
2018-09-21T12:59:32.037Z,1003.89
2018-09-21T13:00:31.984Z,1003.93
2018-09-21T13:02:25.397Z,1003.98
2018-09-21T13:03:25.374Z,1004.14
2018-09-21T13:05:18.400Z,1004.09
2018-09-21T13:06:18.337Z,1004.13
2018-09-21T13:08:11.660Z,1004.17
2018-09-21T13:09:11.635Z,1004.10
2018-09-21T13:11:04.544Z,1003.98
2018-09-21T13:12:04.532Z,1004.04
2018-09-21T13:13:57.441Z,1004.13
2018-09-21T13:14:57.412Z,1004.18
2018-09-21T13:16:50.795Z,1004.15
2018-09-21T13:17:50.767Z,1004.19
2018-09-21T13:19:44.162Z,1004.21
2018-09-21T13:20:44.138Z,1004.19
2018-09-21T13:22:37.070Z,1004.31
2018-09-21T13:23:37.048Z,1004.28
2018-09-21T13:25:30.423Z,1004.36
2018-09-21T13:26:30.399Z,1004.31
2018-09-21T13:28:23.793Z,1004.40
2018-09-21T13:29:23.772Z,1004.42
2018-09-21T13:31:17.171Z,1004.57
2018-09-21T13:32:17.194Z,1004.41
2018-09-21T13:34:10.175Z,1004.48
2018-09-21T13:35:10.028Z,1004.51
2018-09-21T13:37:03.485Z,1004.47
2018-09-21T13:38:03.402Z,1004.58
2018-09-21T13:39:56.368Z,1004.66
2018-09-21T13:40:56.289Z,1004.62
2018-09-21T13:42:50.257Z,1004.63
2018-09-21T13:43:50.238Z,1004.68
2018-09-21T13:45:43.688Z,1004.70
2018-09-21T13:46:43.100Z,1004.75
2018-09-21T13:48:36.022Z,1004.84
2018-09-21T13:49:36.009Z,1004.79
2018-09-21T13:51:29.407Z,1004.83
2018-09-21T13:52:29.366Z,1004.85
2018-09-21T13:54:22.784Z,1004.79
2018-09-21T13:55:22.763Z,1004.86
2018-09-21T13:57:16.166Z,1004.98
2018-09-21T13:58:16.139Z,1005.01
2018-09-21T14:00:09.075Z,1005.01
2018-09-21T14:01:09.017Z,1005.01
2018-09-21T14:03:01.985Z,1004.98
2018-09-21T14:04:01.898Z,1004.94
2018-09-21T14:05:55.307Z,1005.00
2018-09-21T14:06:55.292Z,1004.99
2018-09-21T14:08:48.679Z,1005.00
2018-09-21T14:09:48.647Z,1004.95
2018-09-21T14:11:41.550Z,1005.09
2018-09-21T14:12:41.538Z,1005.08
2018-09-21T14:14:34.428Z,1005.13
2018-09-21T14:15:34.406Z,1005.13
2018-09-21T14:17:27.824Z,1005.22
2018-09-21T14:18:27.778Z,1005.22
2018-09-21T14:20:21.219Z,1005.23
2018-09-21T14:21:21.178Z,1005.26
2018-09-21T14:23:14.548Z,1005.22
2018-09-21T14:24:14.523Z,1005.27
2018-09-21T14:26:07.921Z,1005.24
2018-09-21T14:27:08.467Z,1005.27
2018-09-21T14:29:01.358Z,1005.23
2018-09-21T14:30:00.776Z,1005.28
2018-09-21T14:31:54.204Z,1005.34
2018-09-21T14:32:54.158Z,1005.38
2018-09-21T14:34:47.166Z,1005.48
2018-09-21T14:35:47.220Z,1005.54
2018-09-21T14:37:40.534Z,1005.59
2018-09-21T14:38:40.521Z,1005.60
2018-09-21T14:40:33.419Z,1005.58
2018-09-21T14:41:33.406Z,1005.54
2018-09-21T14:43:26.804Z,1005.58
2018-09-21T14:44:26.762Z,1005.54
2018-09-21T14:46:20.350Z,1005.62
2018-09-21T14:47:20.158Z,1005.58
2018-09-21T14:49:13.046Z,1005.71
2018-09-21T14:50:13.013Z,1005.80
2018-09-21T14:52:05.916Z,1005.83
2018-09-21T14:53:05.898Z,1005.68
2018-09-21T14:54:58.808Z,1005.71
2018-09-21T14:55:58.771Z,1005.71
2018-09-21T14:57:52.186Z,1005.82
2018-09-21T14:58:52.149Z,1005.89
2018-09-21T15:00:45.064Z,1005.87
2018-09-21T15:01:45.023Z,1005.87
2018-09-21T15:03:37.929Z,1005.82
2018-09-21T15:04:37.914Z,1005.79
2018-09-21T15:06:30.808Z,1005.79
2018-09-21T15:07:30.782Z,1005.81
2018-09-21T15:09:24.757Z,1005.88
2018-09-21T15:10:25.731Z,1005.94
2018-09-21T15:12:18.759Z,1005.98
2018-09-21T15:13:18.104Z,1005.97
2018-09-21T15:15:11.523Z,1006.02
2018-09-21T15:16:11.495Z,1006.00
2018-09-21T15:18:04.951Z,1006.05
2018-09-21T15:19:04.889Z,1006.07
2018-09-21T15:20:58.423Z,1006.06
2018-09-21T15:21:57.738Z,1006.02
2018-09-21T15:23:50.640Z,1006.10
2018-09-21T15:24:50.616Z,1006.13
2018-09-21T15:26:43.531Z,1006.13
2018-09-21T15:27:43.505Z,1006.19
2018-09-21T15:29:36.912Z,1006.22
2018-09-21T15:30:36.877Z,1006.25
2018-09-21T15:32:30.317Z,1006.24
2018-09-21T15:33:30.274Z,1006.25
2018-09-21T15:35:23.637Z,1006.31
2018-09-21T15:36:23.609Z,1006.26
2018-09-21T15:38:16.548Z,1006.26
2018-09-21T15:39:16.500Z,1006.16
2018-09-21T15:41:09.873Z,1006.14
2018-09-21T15:42:09.891Z,1006.16
2018-09-21T15:44:03.241Z,1006.12
2018-09-21T15:45:03.230Z,1006.16
2018-09-21T15:46:56.614Z,1006.22
2018-09-21T15:47:56.604Z,1006.17
2018-09-21T15:49:49.987Z,1006.15
2018-09-21T15:50:49.958Z,1006.16
2018-09-21T15:52:42.906Z,1006.21
2018-09-21T15:53:42.857Z,1006.19
2018-09-21T15:55:36.244Z,1006.41
2018-09-21T15:56:36.212Z,1006.27
2018-09-21T15:58:29.600Z,1006.29
2018-09-21T15:59:29.577Z,1006.41
2018-09-21T16:01:22.517Z,1006.45
2018-09-21T16:02:22.464Z,1006.41
2018-09-21T16:04:15.360Z,1006.44
2018-09-21T16:05:15.356Z,1006.42
2018-09-21T16:07:08.751Z,1006.56
2018-09-21T16:08:08.721Z,1006.45
2018-09-21T16:10:01.598Z,1006.50
2018-09-21T16:11:01.601Z,1006.60
2018-09-21T16:12:54.489Z,1006.59
2018-09-21T16:13:54.494Z,1006.55
2018-09-21T16:15:47.373Z,1006.57
2018-09-21T16:16:47.409Z,1006.59
2018-09-21T16:18:40.751Z,1006.57
2018-09-21T16:19:40.696Z,1006.61
2018-09-21T16:21:34.110Z,1006.68
2018-09-21T16:22:34.067Z,1006.70
2018-09-21T16:24:27.591Z,1006.55
2018-09-21T16:25:28.897Z,1006.61
2018-09-21T16:27:19.859Z,1006.60
2018-09-21T16:28:19.833Z,1006.70
2018-09-21T16:30:13.073Z,1006.61
2018-09-21T16:31:12.993Z,1006.63
2018-09-21T16:33:06.503Z,1006.73
2018-09-21T16:34:06.441Z,1006.66
2018-09-21T16:36:00.127Z,1006.73
2018-09-21T16:36:59.909Z,1006.74
2018-09-21T16:38:53.376Z,1006.75
2018-09-21T16:39:53.268Z,1006.79
2018-09-21T16:41:46.179Z,1006.74
2018-09-21T16:42:46.144Z,1006.75
2018-09-21T16:44:39.145Z,1006.79
2018-09-21T16:45:39.019Z,1006.79
2018-09-21T16:47:31.936Z,1006.78
2018-09-21T16:48:31.895Z,1006.82
2018-09-21T16:50:25.387Z,1006.79
2018-09-21T16:51:25.272Z,1006.84
2018-09-21T16:53:18.301Z,1006.82
2018-09-21T16:54:18.143Z,1006.79
2018-09-21T16:56:11.554Z,1006.85
2018-09-21T16:57:11.547Z,1006.85
2018-09-21T16:59:05.422Z,1006.79
2018-09-21T17:01:17.803Z,1006.93
2018-09-21T17:02:17.786Z,1006.87
2018-09-21T17:04:10.720Z,1006.87
2018-09-21T17:05:10.648Z,1006.94
2018-09-21T17:07:04.066Z,1006.99
2018-09-21T17:08:04.027Z,1006.92
2018-09-21T17:09:56.948Z,1006.98
2018-09-21T17:10:56.897Z,1006.99
2018-09-21T17:12:49.771Z,1006.98
2018-09-21T17:13:49.766Z,1007.00
2018-09-21T17:15:43.167Z,1007.01
2018-09-21T17:16:43.167Z,1007.06
2018-09-21T17:18:36.531Z,1007.07
2018-09-21T17:19:36.509Z,1007.12
2018-09-21T17:21:29.471Z,1007.13
2018-09-21T17:22:29.387Z,1007.22
2018-09-21T17:24:22.285Z,1007.20
2018-09-21T17:25:22.260Z,1007.23
2018-09-21T17:27:15.233Z,1007.23
2018-09-21T17:28:15.159Z,1007.28
2018-09-21T17:30:08.036Z,1007.34